Pagina principale
METAR-TAF:

METAR-TAF

Aeroporti :

Albert, Francia

latitudine: 49-58-21N, longitudine: 002-41-29E, altezza: 111 m

Osservazione

Il bollettino è stato emesso 32 minuti fa, alle 06:00 UTC
Vento 13 kt da nord/nord-est
Temperature 17°C
Umidità 94%
Pressione 1023 hPa
Visibilità: 2100 m
Cielo coperto ad un'altezza di 400 ft
foschia

METAR: LFAQ 260600Z AUTO 02013KT 2100 BR OVC004 17/16 Q1023 BECMG 5000 BR BKN005

Ora: 08:32 (06:32 UTC)

Previsione

Il bollettino è stato emesso 1 ora e 32 minuti fa, alle 05:00 UTC
Previsione valida dal 26 alle 06 UTC al 26 alle 15 UTC
Vento 10 kt da nord/nord-est
Visibilità: 1200 m
Cielo coperto ad un'altezza di 200 ft
foschia
Evoluzione graduale
dal 26 alle 06 UTC al 26 alle 08 UTC
Visibilità: 5000 m
Nuvoloso ad un'altezza di 500 ft
Evoluzione graduale
dal 26 alle 08 UTC al 26 alle 09 UTC
Visibilità: 8000 m

TAF: LFAQ 260500Z 2606/2615 02010KT 1200 BR OVC002 BECMG 2606/2608 5000 BKN005 BECMG 2608/2609 8000 NSW NSC

Osservazioni e previsioni meteorologiche di più di 4000 aeroporti (messaggi METAR e TAF).

Le stazioni disponibili sono rappresentate dai dischi gialli e rossi sulla carta.

Puntare il mouse per vedere il nome della stazione.

Clicca sopra per visualizzare le osservazioni e previsioni meteorologiche.

Per cambiare la mappa : fare clic sui pulsanti verdi con una croce nera per ingrandire, il pulsante verde con un trattino per diminuire, o sulla freccia verde per le mappe adiacenti.


METAR-TAF: